Time;durP1;ratioP1;P1;durP2;ratioP2;P2;SDS_P1;SDS_P2;PMS_P1;PMS_P2;Temp;Humidity;BMP_temperature;BMP_pressure;BME280_temperature;BME280_humidity;BME280_pressure;Samples;Min_cycle;Max_cycle;Signal;HPM_P1;HPM_P2
2022/12/12 07:25:15;;;;;;;;;38.75;35.00;;;;;-0.30;71.59;100241.84;5137098;27;45634;-55
2022/12/12 07:27:40;;;;;;;;;36.25;31.25;;;;;-0.12;71.24;100244.47;5114537;27;45547;-54
2022/12/12 07:32:50;;;;;;;;;41.50;37.75;;;;;0.17;69.40;100251.44;5124609;27;45527;-51
2022/12/12 07:35:16;;;;;;;;;37.00;30.75;;;;;0.27;69.19;100252.28;5132117;27;46112;-49
2022/12/12 07:37:41;;;;;;;;;39.00;37.00;;;;;0.32;68.43;100251.41;5132100;27;45515;-51
2022/12/12 07:40:07;;;;;;;;;39.75;34.25;;;;;0.42;69.41;100247.13;5113758;27;45545;-52
2022/12/12 07:42:32;;;;;;;;;41.00;37.25;;;;;0.53;67.98;100249.72;5115256;27;45602;-48
2022/12/12 07:44:58;;;;;;;;;38.00;30.25;;;;;0.64;68.41;100235.91;5131938;27;46186;-46
2022/12/12 07:47:23;;;;;;;;;42.00;32.75;;;;;0.68;66.50;100241.09;5131719;27;45469;-50
2022/12/12 07:49:48;;;;;;;;;39.75;34.50;;;;;0.68;68.15;100238.50;5130252;27;46080;-52
2022/12/12 07:52:14;;;;;;;;;32.75;30.50;;;;;0.69;66.49;100235.91;5112710;27;45474;-50
2022/12/12 07:54:39;;;;;;;;;30.00;29.50;;;;;0.75;67.48;100247.97;5131861;27;45912;-53
2022/12/12 07:57:04;;;;;;;;;43.00;39.50;;;;;0.80;67.88;100248.84;5132710;27;45507;-51
2022/12/12 07:59:30;;;;;;;;;45.00;37.00;;;;;0.84;66.58;100247.97;5132089;27;45494;-52
2022/12/12 08:01:55;;;;;;;;;38.75;32.75;;;;;0.92;67.27;100255.75;5131993;27;45596;-50
2022/12/12 08:04:20;;;;;;;;;38.50;34.25;;;;;0.98;66.53;100256.56;5119341;27;45526;-52
2022/12/12 08:06:47;;;;;;;;;42.00;35.50;;;;;1.00;66.92;100254.84;5127314;27;45576;-49
2022/12/12 08:09:12;;;;;;;;;33.75;32.50;;;;;1.05;67.29;100271.25;5127306;27;45502;-53
2022/12/12 08:11:39;;;;;;;;;38.25;37.00;;;;;1.09;65.83;100272.09;5126055;27;45487;-51
2022/12/12 08:14:07;;;;;;;;;44.50;37.75;;;;;1.14;66.67;100275.53;5131441;27;46063;-50
2022/12/12 08:16:32;;;;;;;;;31.00;31.00;;;;;1.15;66.26;100272.06;5130310;27;45532;-50
2022/12/12 08:18:58;;;;;;;;;39.50;34.50;;;;;1.14;66.33;100278.13;5131416;27;45445;-52
2022/12/12 08:21:24;;;;;;;;;39.75;33.00;;;;;1.18;65.72;100276.38;5123763;27;45473;-51
2022/12/12 08:23:49;;;;;;;;;36.25;33.25;;;;;1.21;66.21;100272.06;5110106;27;45723;-53
2022/12/12 08:26:16;;;;;;;;;37.25;34.25;;;;;1.23;64.84;100264.28;5110532;27;45358;-50
2022/12/12 08:28:48;;;;;;;;;35.25;32.25;;;;;1.23;66.28;100261.69;5110910;27;45456;-52
2022/12/12 08:31:15;;;;;;;;;37.25;33.75;;;;;1.23;64.95;100275.50;5110956;27;45498;-51
2022/12/12 08:33:41;;;;;;;;;41.25;39.25;;;;;1.23;65.39;100283.28;5110268;27;46223;-49
2022/12/12 08:36:11;;;;;;;;;41.25;32.25;;;;;1.19;64.91;100286.75;5097263;27;45487;-53
2022/12/12 08:38:36;;;;;;;;;37.25;35.75;;;;;1.20;65.05;100283.28;5095812;27;45428;-50
2022/12/12 08:41:02;;;;;;;;;44.75;38.25;;;;;1.18;65.20;100291.94;5080408;27;45551;-50
2022/12/12 08:43:27;;;;;;;;;44.00;38.75;;;;;1.13;65.48;100298.84;5097152;27;45867;-51
2022/12/12 08:45:59;;;;;;;;;42.75;34.50;;;;;1.10;64.90;100312.66;5096603;27;45497;-54
2022/12/12 08:48:24;;;;;;;;;38.50;36.50;;;;;1.09;64.51;100308.34;5096810;27;45547;-53
2022/12/12 08:50:51;;;;;;;;;38.25;32.75;;;;;1.12;65.70;100300.56;5096707;27;45475;-47
2022/12/12 08:53:16;;;;;;;;;42.00;33.25;;;;;1.14;64.67;100303.16;5096388;27;46622;-54
2022/12/12 08:55:41;;;;;;;;;36.00;33.50;;;;;1.16;64.63;100304.03;5077974;27;45497;-50
2022/12/12 08:58:07;;;;;;;;;39.00;37.25;;;;;1.17;65.67;100296.25;5096405;27;45553;-50
2022/12/12 09:00:32;;;;;;;;;46.50;41.75;;;;;1.12;65.17;100290.22;5096200;27;45622;-51
2022/12/12 09:02:57;;;;;;;;;38.50;35.00;;;;;1.22;64.55;100307.47;5095895;27;45464;-52
2022/12/12 09:05:23;;;;;;;;;45.25;36.75;;;;;1.24;65.07;100307.47;5096381;27;45494;-53
2022/12/12 09:07:49;;;;;;;;;46.75;39.25;;;;;1.26;64.82;100306.59;5096371;27;45437;-50
2022/12/12 09:10:14;;;;;;;;;41.75;36.75;;;;;1.27;64.70;100303.13;5095317;27;45646;-49
2022/12/12 09:12:39;;;;;;;;;39.00;37.25;;;;;1.24;64.53;100308.34;5095961;27;46059;-50
2022/12/12 09:15:06;;;;;;;;;47.00;39.75;;;;;1.23;64.04;100309.19;5095961;27;45500;-49
2022/12/12 09:17:31;;;;;;;;;38.75;38.00;;;;;1.26;64.75;100311.78;5096104;27;45450;-53
2022/12/12 09:19:56;;;;;;;;;36.25;33.25;;;;;1.31;64.65;100310.03;5096339;27;45609;-51
2022/12/12 09:22:22;;;;;;;;;45.25;36.50;;;;;1.33;63.56;100297.06;5095938;27;46097;-53
2022/12/12 09:24:47;;;;;;;;;42.75;37.50;;;;;1.34;63.68;100298.78;5095672;27;45474;-52
2022/12/12 09:27:12;;;;;;;;;38.75;36.00;;;;;1.31;64.30;100293.63;5096231;27;45400;-50
2022/12/12 09:29:38;;;;;;;;;44.50;39.25;;;;;1.30;63.45;100291.91;5096176;27;45590;-52
2022/12/12 09:32:05;;;;;;;;;33.25;27.00;;;;;1.29;63.52;100287.56;5095671;27;45449;-51
2022/12/12 09:34:32;;;;;;;;;50.50;43.00;;;;;1.30;64.33;100287.59;5086107;27;45660;-53
2022/12/12 09:36:57;;;;;;;;;49.75;42.50;;;;;1.32;63.96;100293.63;5088036;27;45494;-51
2022/12/12 09:39:23;;;;;;;;;47.75;42.00;;;;;1.31;62.88;100299.66;5095480;27;45621;-50
2022/12/12 09:41:48;;;;;;;;;47.75;39.25;;;;;1.29;63.91;100306.59;5095519;27;46211;-51
2022/12/12 09:44:18;;;;;;;;;44.75;41.00;;;;;1.30;64.07;100302.28;5096043;27;45565;-52
2022/12/12 09:46:52;;;;;;;;;34.25;33.25;;;;;1.30;63.73;100289.31;5094658;27;45487;-50
2022/12/12 09:49:45;;;;;;;;;34.50;33.50;;;;;1.33;64.27;100295.34;5094664;27;45571;-50
2022/12/12 09:52:30;;;;;;;;;50.25;39.25;;;;;1.31;63.14;100288.44;5095443;27;45421;-52
2022/12/12 09:54:57;;;;;;;;;42.50;34.25;;;;;1.26;63.42;100305.72;5093441;27;45551;-51
2022/12/12 09:57:45;;;;;;;;;46.00;40.50;;;;;1.20;63.23;100295.38;5095591;27;45532;-54
2022/12/12 10:00:13;;;;;;;;;57.50;43.75;;;;;1.18;63.30;100290.19;5095448;27;45514;-51
2022/12/12 10:02:45;;;;;;;;;54.75;46.25;;;;;1.16;63.28;100286.75;5095142;27;46705;-49
2022/12/12 10:05:26;;;;;;;;;54.00;42.00;;;;;1.12;63.21;100287.63;5086378;27;45531;-51
2022/12/12 10:08:10;;;;;;;;;49.25;41.75;;;;;1.05;63.36;100280.75;5095549;27;45416;-50
2022/12/12 10:10:39;;;;;;;;;49.50;40.25;;;;;1.00;62.76;100283.34;5095240;27;45502;-50
2022/12/12 10:13:14;;;;;;;;;45.50;41.00;;;;;0.99;63.29;100268.66;5095132;27;46401;-53
2022/12/12 10:15:45;;;;;;;;;48.75;41.25;;;;;1.05;64.06;100258.31;5094836;27;45404;-50
2022/12/12 10:18:45;;;;;;;;;42.25;39.00;;;;;1.09;64.50;100256.56;5095128;27;45492;-52
2022/12/12 10:21:23;;;;;;;;;51.75;40.00;;;;;1.16;63.47;100247.06;5091681;27;45543;-50
2022/12/12 10:24:25;;;;;;;;;44.50;39.25;;;;;1.15;63.26;100261.72;5094481;27;45476;-53
2022/12/12 10:26:51;;;;;;;;;59.25;42.25;;;;;1.13;63.65;100257.41;5095288;27;45430;-50
2022/12/12 10:29:19;;;;;;;;;45.50;40.50;;;;;1.08;62.82;100254.84;5095353;27;45573;-50
2022/12/12 10:32:02;;;;;;;;;56.00;45.25;;;;;1.09;63.35;100259.16;5095377;27;45499;-54
2022/12/12 10:34:58;;;;;;;;;52.25;43.25;;;;;1.14;63.45;100274.69;5092762;27;45577;-50
2022/12/12 10:37:30;;;;;;;;;58.00;47.00;;;;;1.18;64.29;100289.34;5092859;27;45448;-51
2022/12/12 10:40:01;;;;;;;;;61.25;45.00;;;;;1.21;63.60;100286.72;5094977;27;45441;-52
2022/12/12 10:42:31;;;;;;;;;48.25;40.25;;;;;1.19;62.96;100285.91;5075524;27;45573;-50
2022/12/12 10:45:22;;;;;;;;;60.75;47.25;;;;;1.15;62.56;100272.06;5094581;27;45973;-48
2022/12/12 10:47:48;;;;;;;;;44.75;41.25;;;;;1.14;62.48;100279.88;5094606;27;45530;-53
2022/12/12 10:50:25;;;;;;;;;54.25;42.00;;;;;1.08;62.80;100263.47;5095012;27;45499;-51
2022/12/12 10:52:51;;;;;;;;;47.00;40.25;;;;;1.09;62.64;100260.00;5094497;27;45507;-50
2022/12/12 10:55:22;;;;;;;;;44.75;41.00;;;;;1.14;63.01;100262.59;5094697;27;45834;-51
2022/12/12 10:58:00;;;;;;;;;47.75;41.50;;;;;1.16;62.56;100254.81;5093239;27;45537;-51
2022/12/12 11:00:30;;;;;;;;;40.50;38.75;;;;;1.12;62.58;100250.50;5094618;27;45421;-52
2022/12/12 11:02:57;;;;;;;;;48.25;41.50;;;;;1.13;62.31;100252.22;5094327;27;45486;-50
2022/12/12 11:05:35;;;;;;;;;48.50;42.50;;;;;1.13;62.68;100232.38;5082761;27;45907;-52
2022/12/12 11:08:04;;;;;;;;;47.25;40.00;;;;;1.14;62.89;100228.91;5092795;27;45595;-50
2022/12/12 11:10:32;;;;;;;;;57.00;42.25;;;;;1.18;63.23;100224.59;5092307;27;45581;-47
2022/12/12 11:13:15;;;;;;;;;44.50;35.25;;;;;1.13;62.49;100214.25;5083213;27;45503;-47
2022/12/12 11:15:48;;;;;;;;;51.75;41.75;;;;;1.09;62.20;100209.94;5079855;27;46288;-50
2022/12/12 11:18:16;;;;;;;;;54.00;43.00;;;;;1.02;61.37;100209.13;5094284;27;46016;-55
2022/12/12 11:21:08;;;;;;;;;44.25;40.25;;;;;0.91;62.96;100182.38;5075806;27;45442;-49
2022/12/12 11:23:38;;;;;;;;;42.00;40.00;;;;;0.93;62.02;100183.22;5093785;27;45462;-51
2022/12/12 11:26:10;;;;;;;;;45.00;39.75;;;;;0.87;61.75;100175.47;5091924;27;45563;-52
2022/12/12 11:28:37;;;;;;;;;42.00;38.25;;;;;0.87;63.18;100178.94;5093964;27;45567;-49
2022/12/12 11:31:09;;;;;;;;;51.00;42.50;;;;;0.84;62.92;100170.31;5094208;27;45469;-52
2022/12/12 11:33:44;;;;;;;;;47.75;42.75;;;;;0.90;62.90;100175.47;5089991;27;45507;-51
2022/12/12 11:36:39;;;;;;;;;48.50;43.25;;;;;0.95;63.09;100178.06;5080316;27;45559;-51
2022/12/12 11:39:20;;;;;;;;;42.25;37.25;;;;;1.02;62.15;100180.63;5091732;27;45587;-51
2022/12/12 11:42:04;;;;;;;;;49.25;43.75;;;;;1.07;62.19;100175.41;5093796;27;45491;-49
2022/12/12 11:44:34;;;;;;;;;55.75;43.25;;;;;1.08;62.25;100172.81;5094370;27;45429;-51
2022/12/12 11:47:21;;;;;;;;;52.50;44.00;;;;;1.05;62.13;100175.44;5092317;27;48037;-52
2022/12/12 11:49:53;;;;;;;;;48.75;40.00;;;;;1.01;62.19;100170.25;5075520;27;45474;-53
2022/12/12 11:52:26;;;;;;;;;49.25;43.50;;;;;0.97;62.01;100172.00;5094012;27;45362;-54
2022/12/12 11:54:52;;;;;;;;;41.75;40.25;;;;;0.98;62.59;100170.28;5093964;27;45495;-49
2022/12/12 11:57:44;;;;;;;;;39.50;37.75;;;;;1.01;62.40;100176.28;5093642;27;45547;-52
2022/12/12 12:00:23;;;;;;;;;51.75;42.00;;;;;1.10;62.11;100176.28;5093744;27;45420;-49
2022/12/12 12:03:23;;;;;;;;;35.50;34.50;;;;;1.08;62.12;100165.06;5093638;27;45536;-52
2022/12/12 12:06:06;;;;;;;;;46.75;41.25;;;;;1.12;62.33;100162.44;5082232;27;45473;-51
2022/12/12 12:09:24;;;;;;;;;46.50;40.50;;;;;1.13;62.26;100165.06;5092197;27;45593;-49
2022/12/12 12:12:14;;;;;;;;;47.75;41.50;;;;;1.15;62.23;100168.47;5075083;27;45668;-52
2022/12/12 12:15:04;;;;;;;;;45.25;35.50;;;;;1.18;62.62;100158.09;5097241;27;45445;-53
2022/12/12 12:17:48;;;;;;;;;50.75;44.00;;;;;1.19;62.80;100151.22;5089250;27;45529;-52
2022/12/12 12:20:39;;;;;;;;;53.25;42.00;;;;;1.21;62.43;100152.03;5087106;27;46453;-50
2022/12/12 12:23:32;;;;;;;;;44.75;39.75;;;;;1.27;62.63;100158.06;5095374;27;45559;-49
2022/12/12 12:26:12;;;;;;;;;50.25;42.00;;;;;1.31;62.44;100156.31;5092937;27;45499;-51
2022/12/12 12:29:00;;;;;;;;;34.75;34.75;;;;;1.34;62.85;100145.94;5094606;27;45734;-50
2022/12/12 12:31:25;;;;;;;;;71.00;55.50;;;;;1.40;62.34;100134.69;5095405;27;45431;-53
2022/12/12 12:34:03;;;;;;;;;53.00;43.50;;;;;1.44;62.01;100139.00;5083335;27;45502;-50
2022/12/12 12:37:09;;;;;;;;;48.75;40.50;;;;;1.46;61.96;100138.13;5096174;27;45649;-51
2022/12/12 12:39:59;;;;;;;;;50.00;39.25;;;;;1.52;61.89;100130.28;5073143;27;45529;-53
2022/12/12 12:43:00;;;;;;;;;49.00;40.75;;;;;1.60;61.88;100117.28;5094799;27;45459;-55
2022/12/12 12:45:48;;;;;;;;;51.75;42.50;;;;;1.65;61.48;100119.88;5089697;27;45500;-53
2022/12/12 12:48:17;;;;;;;;;54.00;41.75;;;;;1.63;61.60;100119.00;5095081;27;45506;-52
2022/12/12 12:50:49;;;;;;;;;50.50;38.75;;;;;1.67;61.74;100107.75;5096155;27;45617;-50
2022/12/12 12:53:54;;;;;;;;;50.25;41.50;;;;;1.70;61.24;100113.78;5094619;27;45468;-50
2022/12/12 12:56:25;;;;;;;;;38.00;38.00;;;;;1.67;61.32;100118.97;5094731;27;45532;-51
2022/12/12 12:58:52;;;;;;;;;54.75;44.50;;;;;1.64;61.57;100120.72;5096747;27;45488;-53
2022/12/12 13:01:24;;;;;;;;;49.00;41.50;;;;;1.60;61.00;100122.47;5096458;27;45666;-50
2022/12/12 13:04:07;;;;;;;;;47.00;41.75;;;;;1.63;61.53;100114.69;5096416;27;46025;-52
2022/12/12 13:06:38;;;;;;;;;52.75;39.75;;;;;1.68;61.22;100112.06;5096414;27;45451;-55
2022/12/12 13:09:16;;;;;;;;;46.25;40.00;;;;;1.69;62.30;100109.47;5096551;27;45516;-52
2022/12/12 13:11:46;;;;;;;;;51.50;41.25;;;;;1.74;61.99;100104.22;5096105;27;45492;-53
2022/12/12 13:14:18;;;;;;;;;49.00;41.50;;;;;1.77;61.61;100109.38;5096216;27;45540;-51
2022/12/12 13:16:44;;;;;;;;;52.00;43.50;;;;;1.80;61.57;100098.13;5096176;27;45547;-52
2022/12/12 13:19:23;;;;;;;;;51.25;43.00;;;;;1.84;61.45;100099.84;5094572;27;45648;-52
2022/12/12 13:22:03;;;;;;;;;38.75;34.75;;;;;1.85;62.13;100089.44;5095970;27;45457;-52
2022/12/12 13:24:43;;;;;;;;;52.50;42.25;;;;;1.84;61.05;100076.50;5095690;27;45551;-52
2022/12/12 13:27:20;;;;;;;;;51.00;41.00;;;;;1.86;61.00;100085.16;5095970;27;45431;-53
2022/12/12 13:30:03;;;;;;;;;43.50;39.00;;;;;1.83;61.37;100075.66;5096294;27;46128;-50
2022/12/12 13:32:35;;;;;;;;;52.00;39.50;;;;;1.88;61.85;100078.19;5096193;27;45511;-51
2022/12/12 13:35:10;;;;;;;;;41.75;38.00;;;;;1.91;60.97;100073.00;5095719;27;46195;-53
2022/12/12 13:37:44;;;;;;;;;43.75;39.25;;;;;1.90;60.87;100069.53;5095715;27;45715;-49
2022/12/12 13:40:22;;;;;;;;;39.50;36.50;;;;;1.87;60.82;100066.97;5096252;27;46118;-49
2022/12/12 13:43:16;;;;;;;;;44.75;39.75;;;;;1.88;60.73;100060.94;5096475;27;45432;-53
2022/12/12 13:45:44;;;;;;;;;42.00;37.00;;;;;1.86;60.79;100061.81;5047812;27;45559;-48
2022/12/12 13:48:35;;;;;;;;;47.25;41.50;;;;;1.82;60.84;100053.19;5088038;27;45448;-50
2022/12/12 13:51:30;;;;;;;;;27.75;22.00;;;;;1.86;61.32;100065.25;5096082;27;45623;-51
2022/12/12 13:54:08;;;;;;;;;44.25;37.25;;;;;1.89;60.63;100062.63;5095841;27;45686;-52
2022/12/12 13:56:39;;;;;;;;;44.25;39.00;;;;;1.87;60.61;100059.19;5076455;27;47080;-50
2022/12/12 13:59:23;;;;;;;;;41.75;36.75;;;;;1.85;60.73;100060.06;5095712;27;45484;-51
2022/12/12 14:02:00;;;;;;;;;46.75;39.50;;;;;1.80;60.45;100062.72;5095772;27;45658;-52
2022/12/12 14:04:33;;;;;;;;;48.75;42.75;;;;;1.80;61.05;100067.91;5095488;27;45578;-49
2022/12/12 14:07:06;;;;;;;;;37.75;37.75;;;;;1.80;61.01;100051.47;5095368;27;46154;-49
2022/12/12 14:09:36;;;;;;;;;44.25;40.75;;;;;1.76;61.44;100058.44;5095472;27;45527;-51
2022/12/12 14:12:04;;;;;;;;;47.50;40.25;;;;;1.80;61.11;100057.53;5095339;27;45493;-51
2022/12/12 14:14:31;;;;;;;;;54.50;42.50;;;;;1.79;61.36;100063.59;5095245;27;45522;-49
2022/12/12 14:16:57;;;;;;;;;45.50;40.75;;;;;1.75;61.64;100069.69;5094154;27;45470;-49
2022/12/12 14:19:35;;;;;;;;;38.50;37.00;;;;;1.82;61.43;100073.91;5095437;27;45543;-51
2022/12/12 14:22:01;;;;;;;;;42.75;37.50;;;;;1.88;61.85;100073.91;5095017;27;45548;-50
2022/12/12 14:24:32;;;;;;;;;39.00;38.00;;;;;1.85;61.16;100065.25;5094849;27;45591;-49
2022/12/12 14:27:05;;;;;;;;;49.75;42.00;;;;;1.82;60.36;100073.06;5094514;27;46267;-51
2022/12/12 14:29:38;;;;;;;;;52.00;44.00;;;;;1.80;61.06;100075.69;5095039;27;45427;-49
2022/12/12 14:32:09;;;;;;;;;46.75;38.50;;;;;1.82;60.90;100075.66;5093249;27;45450;-53
2022/12/12 14:34:48;;;;;;;;;50.75;42.00;;;;;1.77;60.90;100071.38;5095065;27;45639;-51
2022/12/12 14:37:37;;;;;;;;;45.25;39.75;;;;;1.75;60.66;100073.13;5094809;27;46282;-51
2022/12/12 14:40:22;;;;;;;;;44.75;40.50;;;;;1.79;61.19;100076.53;5095122;27;45495;-49
2022/12/12 14:43:00;;;;;;;;;57.75;43.00;;;;;1.74;61.20;100080.91;5094944;27;45548;-52
2022/12/12 14:45:30;;;;;;;;;42.00;38.75;;;;;1.72;61.49;100082.63;5094192;27;45519;-49
2022/12/12 14:48:17;;;;;;;;;50.00;42.00;;;;;1.62;61.51;100065.47;5094531;27;46571;-52
2022/12/12 14:50:56;;;;;;;;;49.75;41.75;;;;;1.58;60.82;100082.75;5094779;27;45594;-52
2022/12/12 14:53:32;;;;;;;;;46.00;40.00;;;;;1.56;61.54;100076.72;5094819;27;45532;-52
2022/12/12 14:56:02;;;;;;;;;45.50;40.50;;;;;1.54;61.92;100084.50;5076396;27;45458;-51
2022/12/12 14:58:31;;;;;;;;;52.25;43.00;;;;;1.47;61.30;100088.00;5094665;27;46258;-48
2022/12/12 15:01:02;;;;;;;;;47.00;41.25;;;;;1.43;61.76;100088.06;5086222;27;45490;-49
2022/12/12 15:03:32;;;;;;;;;56.00;41.75;;;;;1.42;61.46;100081.13;5093570;27;45335;-51
2022/12/12 15:06:31;;;;;;;;;38.00;33.75;;;;;1.46;61.81;100081.09;5094638;27;45402;-54
2022/12/12 15:09:29;;;;;;;;;44.00;40.25;;;;;1.49;61.59;100080.22;5037455;28;45502;-51
2022/12/12 15:12:07;;;;;;;;;49.50;40.00;;;;;1.46;61.34;100080.25;5052500;27;45588;-50
2022/12/12 15:14:32;;;;;;;;;41.25;36.75;;;;;1.49;61.21;100086.25;5076118;27;45513;-49
2022/12/12 15:17:05;;;;;;;;;44.50;39.25;;;;;1.51;61.11;100084.53;5094286;27;45692;-52
2022/12/12 15:19:50;;;;;;;;;43.75;39.50;;;;;1.49;61.11;100091.44;5094364;27;46135;-51
2022/12/12 15:22:26;;;;;;;;;43.00;40.50;;;;;1.55;61.48;100098.31;5094059;27;45476;-52
2022/12/12 15:24:53;;;;;;;;;42.50;39.50;;;;;1.55;61.59;100090.53;5094402;27;45696;-53
2022/12/12 15:27:26;;;;;;;;;50.75;42.50;;;;;1.57;61.60;100088.81;5093939;27;45651;-52
2022/12/12 15:29:51;;;;;;;;;44.00;39.75;;;;;1.60;61.18;100088.78;5094138;27;45547;-49
2022/12/12 15:32:20;;;;;;;;;47.75;41.50;;;;;1.57;61.25;100086.22;5091920;27;45487;-49
2022/12/12 15:34:57;;;;;;;;;45.25;38.25;;;;;1.58;61.19;100087.94;5094263;27;45619;-50
2022/12/12 15:37:30;;;;;;;;;42.75;38.75;;;;;1.56;61.51;100087.09;5093962;27;45717;-51
2022/12/12 15:40:09;;;;;;;;;45.00;39.25;;;;;1.57;61.17;100088.81;5094032;27;46118;-51
2022/12/12 15:42:43;;;;;;;;;48.50;40.25;;;;;1.58;60.96;100087.06;5094146;27;45499;-48
2022/12/12 15:45:18;;;;;;;;;47.25;41.50;;;;;1.55;60.96;100086.22;5096148;27;45522;-51
2022/12/12 15:47:44;;;;;;;;;50.00;41.00;;;;;1.54;61.46;100081.91;5097655;27;45504;-53
2022/12/12 15:50:16;;;;;;;;;52.75;41.00;;;;;1.52;61.63;100075.88;5097618;27;45577;-54
2022/12/12 15:52:42;;;;;;;;;48.75;39.25;;;;;1.51;61.61;100076.75;5097827;27;45476;-48
2022/12/12 15:55:21;;;;;;;;;44.00;37.00;;;;;1.47;60.88;100074.19;5097806;27;45572;-51
2022/12/12 15:57:49;;;;;;;;;54.00;41.50;;;;;1.47;60.87;100077.63;5097832;27;45530;-53
2022/12/12 16:00:33;;;;;;;;;43.25;36.25;;;;;1.50;60.66;100079.34;5096550;27;46155;-50
2022/12/12 16:03:22;;;;;;;;;43.50;33.75;;;;;1.46;61.00;100075.06;5097287;27;45527;-50
2022/12/12 16:06:03;;;;;;;;;43.50;39.25;;;;;1.41;60.28;100066.47;5089071;27;45494;-49
2022/12/12 16:08:34;;;;;;;;;47.00;40.50;;;;;1.38;60.45;100069.94;5096385;27;45469;-48
2022/12/12 16:11:03;;;;;;;;;39.00;34.25;;;;;1.37;60.30;100068.22;5097144;27;47401;-52
2022/12/12 16:13:39;;;;;;;;;46.25;38.25;;;;;1.35;60.83;100054.41;5097203;27;45502;-52
2022/12/12 16:16:34;;;;;;;;;46.25;41.75;;;;;1.33;60.81;100062.19;5097354;27;45570;-50
2022/12/12 16:19:00;;;;;;;;;43.00;39.50;;;;;1.35;60.26;100057.00;5097203;27;45659;-49
2022/12/12 16:21:27;;;;;;;;;48.25;41.75;;;;;1.35;60.53;100061.34;5097130;27;46064;-52
2022/12/12 16:23:53;;;;;;;;;44.00;39.25;;;;;1.31;60.51;100063.91;5096672;27;46090;-49
2022/12/12 16:26:18;;;;;;;;;47.25;39.00;;;;;1.29;61.09;100060.50;5091084;27;45672;-52
2022/12/12 16:28:43;;;;;;;;;46.25;40.50;;;;;1.23;60.58;100063.09;5091397;27;45491;-52
2022/12/12 16:31:17;;;;;;;;;45.00;40.00;;;;;1.14;60.71;100059.72;5096887;27;45421;-49
2022/12/12 16:33:43;;;;;;;;;44.75;39.75;;;;;1.06;61.03;100059.75;5095529;27;45426;-52
2022/12/12 16:36:11;;;;;;;;;44.50;37.75;;;;;1.02;61.66;100058.94;5097010;27;45451;-48
2022/12/12 16:38:39;;;;;;;;;45.50;42.00;;;;;1.03;61.33;100058.06;5097159;27;45633;-51
2022/12/12 16:41:16;;;;;;;;;48.00;40.25;;;;;0.99;61.22;100066.69;5096829;27;45817;-49
2022/12/12 16:43:41;;;;;;;;;33.75;32.50;;;;;0.96;61.12;100060.69;5097461;27;45608;-52
2022/12/12 16:46:24;;;;;;;;;36.75;35.50;;;;;0.87;61.65;100065.03;5096734;27;45485;-50
2022/12/12 16:48:50;;;;;;;;;41.00;39.50;;;;;0.85;60.92;100071.06;5096810;27;45466;-51
2022/12/12 16:51:22;;;;;;;;;39.50;37.50;;;;;0.83;61.19;100065.03;5096501;27;46173;-51
2022/12/12 16:53:47;;;;;;;;;41.25;35.25;;;;;0.79;61.51;100061.63;5096844;27;45464;-53
2022/12/12 16:56:13;;;;;;;;;44.00;40.00;;;;;0.76;61.05;100059.03;5096162;27;45476;-52
2022/12/12 16:58:38;;;;;;;;;46.00;35.00;;;;;0.77;62.04;100050.41;5095915;27;45561;-52
2022/12/12 17:01:03;;;;;;;;;36.50;31.75;;;;;0.75;61.31;100049.53;5095580;27;45429;-51
2022/12/12 17:03:31;;;;;;;;;42.00;40.25;;;;;0.74;61.67;100047.81;5096181;27;45551;-51
2022/12/12 17:05:57;;;;;;;;;35.50;34.00;;;;;0.73;60.95;100045.25;5096334;27;45463;-54
2022/12/12 17:08:22;;;;;;;;;42.00;36.75;;;;;0.70;62.20;100040.06;5096225;27;45453;-52
2022/12/12 17:10:51;;;;;;;;;43.00;39.25;;;;;0.72;62.34;100046.13;5096317;27;45532;-52
2022/12/12 17:13:22;;;;;;;;;39.75;36.00;;;;;0.73;61.66;100035.75;5096144;27;45554;-51
2022/12/12 17:15:48;;;;;;;;;41.75;39.75;;;;;0.72;61.58;100026.25;5096112;27;45411;-49
2022/12/12 17:18:14;;;;;;;;;43.75;37.50;;;;;0.76;62.33;100046.09;5095004;27;45608;-50
2022/12/12 17:20:40;;;;;;;;;40.25;36.50;;;;;0.71;61.79;100039.22;5095886;27;45394;-55
2022/12/12 17:23:07;;;;;;;;;41.50;38.75;;;;;0.69;62.47;100041.81;5096031;27;45443;-51
2022/12/12 17:25:33;;;;;;;;;37.00;33.75;;;;;0.67;62.15;100046.13;5095596;27;45485;-50
2022/12/12 17:27:59;;;;;;;;;51.75;42.50;;;;;0.65;62.24;100037.53;5096290;27;45562;-50
2022/12/12 17:30:25;;;;;;;;;48.75;40.00;;;;;0.68;62.11;100037.50;5095881;27;45551;-52
2022/12/12 17:32:50;;;;;;;;;39.50;38.50;;;;;0.66;62.27;100039.25;5096068;27;45539;-49
2022/12/12 17:35:16;;;;;;;;;44.00;40.25;;;;;0.62;62.54;100038.41;5096184;27;45504;-51
2022/12/12 17:37:41;;;;;;;;;41.75;37.75;;;;;0.60;62.85;100034.94;5094616;27;45802;-53
2022/12/12 17:40:09;;;;;;;;;51.00;43.75;;;;;0.59;62.17;100025.47;5095739;27;45744;-51
2022/12/12 17:42:36;;;;;;;;;37.50;28.75;;;;;0.58;63.17;100036.69;5095967;27;45521;-48
2022/12/12 17:45:02;;;;;;;;;41.50;37.00;;;;;0.56;63.13;100028.06;5096765;27;45429;-50
2022/12/12 17:47:28;;;;;;;;;39.75;37.75;;;;;0.58;62.54;100023.75;5095572;27;45551;-53
2022/12/12 17:49:53;;;;;;;;;40.00;36.75;;;;;0.59;63.17;100022.88;5095721;27;45434;-51
2022/12/12 17:52:19;;;;;;;;;44.50;38.75;;;;;0.63;61.93;100013.38;5095673;27;45536;-51
2022/12/12 17:54:44;;;;;;;;;48.00;41.00;;;;;0.66;62.49;100016.81;5095673;27;45427;-54
2022/12/12 17:57:10;;;;;;;;;41.50;39.75;;;;;0.62;62.63;100012.53;5094624;27;45574;-52
2022/12/12 17:59:35;;;;;;;;;44.75;40.00;;;;;0.69;62.46;100021.09;5095179;27;45521;-53
2022/12/12 18:02:00;;;;;;;;;50.25;42.00;;;;;0.70;63.19;100009.91;5094875;27;45692;-52
2022/12/12 18:04:26;;;;;;;;;53.75;44.50;;;;;0.74;62.65;100005.56;5095293;27;45480;-50
2022/12/12 18:06:51;;;;;;;;;49.75;41.25;;;;;0.75;62.95;100002.94;5093614;27;45629;-54
2022/12/12 18:09:17;;;;;;;;;42.75;40.25;;;;;0.71;62.74;100000.41;5094602;27;45461;-51
2022/12/12 18:11:44;;;;;;;;;44.50;40.50;;;;;0.66;61.82;100000.41;5094926;27;45438;-50
2022/12/12 18:14:14;;;;;;;;;42.75;38.75;;;;;0.66;62.51;100006.44;5095395;27;45480;-54
2022/12/12 18:16:41;;;;;;;;;47.00;42.00;;;;;0.69;62.23;100004.72;5094453;27;45652;-53
2022/12/12 18:19:07;;;;;;;;;49.00;40.50;;;;;0.70;62.53;99999.56;5080810;27;46304;-53
2022/12/12 18:21:34;;;;;;;;;47.00;42.75;;;;;0.64;62.20;99984.88;5094352;27;45454;-53
2022/12/12 18:23:59;;;;;;;;;50.50;43.25;;;;;0.75;62.59;99997.78;5094295;27;45446;-51
2022/12/12 18:26:25;;;;;;;;;50.25;42.25;;;;;0.82;62.43;99988.25;5094800;27;45516;-50
2022/12/12 18:29:12;;;;;;;;;50.00;41.75;;;;;0.77;62.66;99975.34;5094422;27;46071;-53
2022/12/12 18:31:37;;;;;;;;;46.00;40.00;;;;;0.79;62.66;99983.09;5093391;27;45449;-53
2022/12/12 18:34:03;;;;;;;;;49.00;40.75;;;;;0.80;62.79;99997.75;5088507;27;45487;-50
2022/12/12 18:36:30;;;;;;;;;42.75;35.50;;;;;0.79;62.70;99989.13;5094946;27;45573;-50
2022/12/12 18:38:56;;;;;;;;;55.75;44.25;;;;;0.73;61.43;99977.97;5094865;27;45567;-53
2022/12/12 18:41:22;;;;;;;;;52.25;44.25;;;;;0.72;63.21;99978.81;5095087;27;45526;-50
2022/12/12 18:43:47;;;;;;;;;48.00;42.75;;;;;0.77;62.91;99979.66;5095705;27;45573;-51
2022/12/12 18:46:17;;;;;;;;;51.50;45.00;;;;;0.78;62.78;99963.25;5094721;27;45556;-49
2022/12/12 18:48:44;;;;;;;;;48.25;42.00;;;;;0.82;62.79;99977.91;5094661;27;45512;-53
2022/12/12 18:51:14;;;;;;;;;56.00;44.00;;;;;0.78;62.83;99979.66;5090363;27;45580;-48
2022/12/12 18:53:40;;;;;;;;;51.50;44.00;;;;;0.72;62.42;99978.81;5089512;27;45539;-55
2022/12/12 18:56:11;;;;;;;;;54.00;44.25;;;;;0.66;64.01;99982.31;5095505;27;45742;-53
2022/12/12 18:58:36;;;;;;;;;46.00;40.25;;;;;0.69;63.01;99984.88;5094796;27;45497;-55
2022/12/12 19:01:08;;;;;;;;;57.75;45.00;;;;;0.65;64.12;99988.38;5094289;27;45478;-55
2022/12/12 19:03:35;;;;;;;;;49.50;44.00;;;;;0.65;64.33;99983.19;5093553;27;45591;-56
2022/12/12 19:06:09;;;;;;;;;54.50;44.00;;;;;0.67;64.25;99978.84;5093009;27;45616;-54
2022/12/12 19:08:35;;;;;;;;;56.75;46.75;;;;;0.69;63.43;99990.06;5094465;27;45449;-54